Climatologie pour Saint-Brevin les Pins
Jour • Résumé pour décembre 08, 2017 Système :  Anglais    Métrique   Mixte
« - 1 jour
+ 1 jour »
Jour Semaine Mois Année Personnalisé
  Maximum : Minimum : Moyenne :
Température sous abri : TemperatureC °F 2.2 °F 6.3 °F
Point de rosée : DewpointC °F 0.5 °F 3.4 °F
Humidité : Humidity % 62 % 82 %
Vitesse du vent : WindSpeedKMH mph 0.0 mph 8 mph
Rafale : WindSpeedGustKMH mph - -
Direction :- - NW
Pression : PressurehPa in 1020.5 in -
Précipitations : 0.0 in    
Historical Graphs
 
 
Tableau de données pour décembre 08, 2017
Heure Tempé Pt rosée Pression Vent Vitesse Rafale Humidité Taux pluie (/hr) Soleil
TemperatureC °F DewpointC °F PressurehPa in Calm     Humidity % HourlyPrecipMM in SolarRadiationWatts/m^2 W/m2 Conditions
00:00 6.9 °F 5.9 °F 1020.5 in NW 6.4 mph 14.5 mph 93 % 0.0 in 0 W/m2
00:15 6.5 °F 5.4 °F 1020.5 in WNW 3.2 mph 11.3 mph 93 % 0.0 in 0 W/m2
00:20 6.4 °F 5.5 °F 1020.5 in NW 4.8 mph 11.3 mph 94 % 0.0 in 0 W/m2
00:25 6.6 °F 5.7 °F 1020.9 in NW 8.0 mph 16.1 mph 94 % 0.0 in 0 W/m2
00:30 6.9 °F 6.1 °F 1020.9 in NW 4.8 mph 16.1 mph 95 % 0.0 in 0 W/m2
00:35 7.1 °F 6.3 °F 1020.9 in NW 8.0 mph 14.5 mph 95 % 0.0 in 0 W/m2
00:40 7.1 °F 6.2 °F 1020.9 in WNW 3.2 mph 14.5 mph 94 % 0.0 in 0 W/m2
00:45 7.0 °F 6.1 °F 1020.9 in WNW 6.4 mph 14.5 mph 94 % 0.0 in 0 W/m2
00:50 6.8 °F 5.7 °F 1020.9 in NNW 3.2 mph 9.7 mph 93 % 0.0 in 0 W/m2
00:55 6.6 °F 5.5 °F 1020.9 in WNW 11.3 mph 11.3 mph 93 % 0.0 in 0 W/m2
01:00 6.6 °F 5.7 °F 1020.9 in Calm   11.3 mph 94 % 0.0 in 0 W/m2
01:05 6.6 °F 5.7 °F 1020.9 in NW 3.2 mph 12.9 mph 94 % 0.0 in 0 W/m2
01:10 6.7 °F 5.8 °F 1020.9 in NW 6.4 mph 12.9 mph 94 % 0.0 in 0 W/m2
01:20 6.6 °F 5.7 °F 1020.9 in NNW 9.7 mph 14.5 mph 94 % 0.0 in 0 W/m2
01:25 6.6 °F 5.7 °F 1020.9 in WNW 9.7 mph 14.5 mph 94 % 0.0 in 0 W/m2
01:30 6.7 °F 5.8 °F 1020.9 in WNW 1.6 mph 14.5 mph 94 % 0.0 in 0 W/m2
01:35 6.7 °F 5.8 °F 1020.9 in NW 6.4 mph 12.9 mph 94 % 0.0 in 0 W/m2
01:40 6.6 °F 5.7 °F 1020.5 in WNW 4.8 mph 12.9 mph 94 % 0.0 in 0 W/m2
01:45 6.6 °F 5.5 °F 1020.9 in NW 6.4 mph 12.9 mph 93 % 0.0 in 0 W/m2
01:50 6.5 °F 5.4 °F 1020.9 in NW 8.0 mph 11.3 mph 93 % 0.0 in 0 W/m2
01:55 6.4 °F 5.4 °F 1020.9 in WNW 11.3 mph 11.3 mph 93 % 0.0 in 0 W/m2
02:00 6.4 °F 5.4 °F 1020.9 in WNW 6.4 mph 12.9 mph 93 % 0.0 in 0 W/m2
02:05 6.4 °F 5.4 °F 1020.9 in WNW 3.2 mph 12.9 mph 93 % 0.0 in 0 W/m2
02:10 6.4 °F 5.4 °F 1021.2 in NW 4.8 mph 12.9 mph 93 % 0.0 in 0 W/m2
02:15 6.5 °F 5.4 °F 1021.2 in NW 11.3 mph 12.9 mph 93 % 0.0 in 0 W/m2
02:20 6.6 °F 5.5 °F 1021.2 in NW 9.7 mph 12.9 mph 93 % 0.0 in 0 W/m2
02:25 6.8 °F 5.9 °F 1020.9 in WNW 6.4 mph 14.5 mph 94 % 0.0 in 0 W/m2
02:30 7.0 °F 5.9 °F 1021.2 in NW 9.7 mph 22.5 mph 93 % 0.0 in 0 W/m2
02:35 7.2 °F 6.1 °F 1021.2 in NW 6.4 mph 22.5 mph 93 % 0.0 in 0 W/m2
02:40 7.3 °F 6.1 °F 1021.2 in NW 8.0 mph 17.7 mph 92 % 0.0 in 0 W/m2
02:45 7.4 °F 6.2 °F 1021.2 in WNW 6.4 mph 17.7 mph 92 % 0.0 in 0 W/m2
02:50 7.5 °F 6.3 °F 1021.2 in NNW 6.4 mph 14.5 mph 92 % 0.0 in 0 W/m2
02:55 7.6 °F 6.2 °F 1021.6 in NNW 11.3 mph 14.5 mph 91 % 0.0 in 0 W/m2
03:00 7.6 °F 6.2 °F 1021.6 in WNW 11.3 mph 12.9 mph 91 % 0.0 in 0 W/m2
03:05 7.5 °F 6.0 °F 1021.6 in NW 9.7 mph 16.1 mph 90 % 0.0 in 0 W/m2
03:10 7.4 °F 5.9 °F 1021.6 in West 4.8 mph 17.7 mph 90 % 0.0 in 0 W/m2
03:15 7.4 °F 5.7 °F 1021.6 in WNW 3.2 mph 17.7 mph 89 % 0.0 in 0 W/m2
03:20 7.3 °F 5.6 °F 1021.6 in WNW 4.8 mph 16.1 mph 89 % 0.0 in 0 W/m2
03:25 7.2 °F 5.4 °F 1021.6 in West 6.4 mph 16.1 mph 88 % 0.0 in 0 W/m2
03:30 7.1 °F 5.3 °F 1021.6 in NW 6.4 mph 16.1 mph 88 % 0.0 in 0 W/m2
03:35 7.1 °F 5.0 °F 1021.6 in WNW 4.8 mph 16.1 mph 87 % 0.0 in 0 W/m2
03:45 6.9 °F 4.9 °F 1021.6 in NW 8.0 mph 17.7 mph 87 % 0.0 in 0 W/m2
03:50 6.9 °F 4.7 °F 1021.6 in NW 8.0 mph 14.5 mph 86 % 0.0 in 0 W/m2
03:55 6.8 °F 4.7 °F 1021.6 in NW 6.4 mph 12.9 mph 86 % 0.0 in 0 W/m2
04:00 6.8 °F 4.6 °F 1021.6 in NW 4.8 mph 16.1 mph 86 % 0.0 in 0 W/m2
04:05 6.7 °F 4.5 °F 1021.6 in WNW 1.6 mph 16.1 mph 86 % 0.0 in 0 W/m2
04:10 6.7 °F 4.5 °F 1021.6 in WNW 11.3 mph 14.5 mph 86 % 0.0 in 0 W/m2
04:20 6.6 °F 4.4 °F 1021.6 in NW 4.8 mph 16.1 mph 86 % 0.0 in 0 W/m2
04:30 6.4 °F 4.4 °F 1021.6 in NW 8.0 mph 16.1 mph 87 % 0.0 in 0 W/m2
04:35 6.4 °F 4.4 °F 1021.6 in WNW 4.8 mph 16.1 mph 87 % 0.0 in 0 W/m2
04:40 6.3 °F 4.3 °F 1021.6 in WNW 6.4 mph 16.1 mph 87 % 0.0 in 0 W/m2
04:45 6.3 °F 4.5 °F 1021.6 in NNW 8.0 mph 14.5 mph 88 % 0.0 in 0 W/m2
04:50 6.3 °F 4.5 °F 1021.6 in WNW 8.0 mph 14.5 mph 88 % 0.0 in 0 W/m2
04:55 6.3 °F 4.5 °F 1021.6 in NNW 12.9 mph 16.1 mph 88 % 0.0 in 0 W/m2
05:05 6.3 °F 4.4 °F 1021.6 in NW 9.7 mph 16.1 mph 88 % 0.0 in 0 W/m2
05:10 6.3 °F 4.4 °F 1021.9 in NW 4.8 mph 14.5 mph 88 % 0.0 in 0 W/m2
05:15 6.3 °F 4.4 °F 1021.9 in WNW 3.2 mph 12.9 mph 88 % 0.0 in 0 W/m2
05:25 6.2 °F 4.5 °F 1021.9 in WNW 3.2 mph 17.7 mph 89 % 0.0 in 0 W/m2
05:30 6.3 °F 4.6 °F 1021.9 in WNW 12.9 mph 20.9 mph 89 % 0.0 in 0 W/m2
05:35 6.3 °F 4.6 °F 1021.9 in NW 6.4 mph 20.9 mph 89 % 0.0 in 0 W/m2
05:40 6.3 °F 4.6 °F 1021.9 in NW 6.4 mph 19.3 mph 89 % 0.0 in 0 W/m2
05:45 6.3 °F 4.7 °F 1021.9 in WNW 12.9 mph 22.5 mph 89 % 0.0 in 0 W/m2
05:50 6.3 °F 4.7 °F 1021.9 in NW 11.3 mph 22.5 mph 89 % 0.0 in 0 W/m2
05:55 6.3 °F 4.5 °F 1021.9 in WNW 14.5 mph 20.9 mph 88 % 0.0 in 0 W/m2
06:00 6.3 °F 4.5 °F 1022.2 in NNW 3.2 mph 17.7 mph 88 % 0.0 in 0 W/m2
06:05 6.3 °F 4.5 °F 1022.2 in NW 8.0 mph 17.7 mph 88 % 0.0 in 0 W/m2
06:10 6.3 °F 4.4 °F 1022.2 in NW 9.7 mph 14.5 mph 88 % 0.0 in 0 W/m2
06:15 6.3 °F 4.4 °F 1022.2 in WNW 9.7 mph 14.5 mph 88 % 0.0 in 0 W/m2
06:20 6.2 °F 4.4 °F 1022.2 in NW 9.7 mph 14.5 mph 88 % 0.0 in 0 W/m2
06:25 6.2 °F 4.3 °F 1022.2 in WNW 4.8 mph 12.9 mph 88 % 0.0 in 0 W/m2
06:30 6.1 °F 4.2 °F 1022.2 in NW 8.0 mph 14.5 mph 88 % 0.0 in 0 W/m2
06:35 6.0 °F 4.2 °F 1022.2 in NW 3.2 mph 14.5 mph 88 % 0.0 in 0 W/m2
06:40 5.9 °F 4.1 °F 1022.2 in WNW 11.3 mph 12.9 mph 88 % 0.0 in 0 W/m2
06:45 5.8 °F 4.0 °F 1022.2 in NW 3.2 mph 12.9 mph 88 % 0.0 in 0 W/m2
06:55 5.7 °F 4.0 °F 1022.6 in WNW 4.8 mph 11.3 mph 89 % 0.0 in 0 W/m2
07:00 5.6 °F 3.8 °F 1022.6 in NW 1.6 mph 9.7 mph 88 % 0.0 in 0 W/m2
07:05 5.5 °F 3.7 °F 1022.9 in WNW 3.2 mph 9.7 mph 88 % 0.0 in 0 W/m2
07:10 5.4 °F 3.6 °F 1022.9 in NW 4.8 mph 11.3 mph 88 % 0.0 in 0 W/m2
07:15 5.3 °F 3.5 °F 1022.9 in NNW 4.8 mph 11.3 mph 88 % 0.0 in 0 W/m2
07:20 5.2 °F 3.5 °F 1022.9 in NW 6.4 mph 12.9 mph 89 % 0.0 in 0 W/m2
07:25 5.1 °F 3.4 °F 1022.9 in NW 4.8 mph 12.9 mph 89 % 0.0 in 0 W/m2
07:30 5.0 °F 3.3 °F 1022.9 in WNW 6.4 mph 11.3 mph 89 % 0.0 in 0 W/m2
07:35 4.9 °F 3.4 °F 1022.9 in NW 8.0 mph 11.3 mph 90 % 0.0 in 0 W/m2
07:40 4.9 °F 3.4 °F 1022.9 in Calm   11.3 mph 90 % 0.0 in 0 W/m2
07:45 4.8 °F 3.3 °F 1022.9 in WNW 6.4 mph 11.3 mph 90 % 0.0 in 0 W/m2
07:50 4.8 °F 3.3 °F 1022.9 in NNW 3.2 mph 11.3 mph 90 % 0.0 in 0 W/m2
07:55 4.7 °F 3.2 °F 1022.9 in NW 3.2 mph 9.7 mph 90 % 0.0 in 0 W/m2
08:00 4.6 °F 3.1 °F 1022.9 in NW 4.8 mph 9.7 mph 90 % 0.0 in 0 W/m2
08:05 4.6 °F 3.1 °F 1022.9 in NW 9.7 mph 16.1 mph 90 % 0.0 in 0 W/m2
08:10 4.5 °F 3.2 °F 1023.2 in NW 4.8 mph 16.1 mph 91 % 0.0 in 0 W/m2
08:15 4.5 °F 3.2 °F 1023.2 in NNW 8.0 mph 11.3 mph 91 % 0.0 in 0 W/m2
08:20 4.5 °F 3.2 °F 1023.2 in NW 9.7 mph 12.9 mph 91 % 0.0 in 0 W/m2
08:25 4.5 °F 3.2 °F 1023.2 in NW 8.0 mph 12.9 mph 91 % 0.0 in 0 W/m2
08:30 4.6 °F 3.4 °F 1023.2 in NW 3.2 mph 16.1 mph 92 % 0.0 in 0 W/m2
08:35 4.6 °F 3.4 °F 1023.2 in NW 9.7 mph 16.1 mph 92 % 0.0 in 0 W/m2
08:40 4.7 °F 3.5 °F 1023.2 in WNW 4.8 mph 11.3 mph 92 % 0.0 in 0 W/m2
08:45 4.7 °F 3.5 °F 1023.6 in West 6.4 mph 19.3 mph 92 % 0.0 in 5 W/m2
08:50 4.8 °F 3.6 °F 1023.6 in NW 4.8 mph 19.3 mph 92 % 0.0 in 7 W/m2
08:55 4.8 °F 3.6 °F 1023.6 in NW 8.0 mph 17.7 mph 92 % 0.0 in 9 W/m2
09:00 4.9 °F 3.7 °F 1023.6 in NW 6.4 mph 20.9 mph 92 % 0.0 in 12 W/m2
09:05 4.9 °F 3.8 °F 1023.6 in WNW 4.8 mph 20.9 mph 92 % 0.0 in 14 W/m2
09:10 5.0 °F 3.8 °F 1023.9 in NW 4.8 mph 14.5 mph 92 % 0.0 in 18 W/m2
09:15 5.1 °F 3.9 °F 1023.9 in WNW 6.4 mph 14.5 mph 92 % 0.0 in 19 W/m2
09:20 5.1 °F 3.9 °F 1023.9 in NNW 6.4 mph 14.5 mph 92 % 0.0 in 21 W/m2
09:25 5.2 °F 4.0 °F 1023.9 in NW 11.3 mph 14.5 mph 92 % 0.0 in 25 W/m2
09:30 5.3 °F 3.9 °F 1023.9 in NNW 11.3 mph 16.1 mph 91 % 0.0 in 26 W/m2
09:35 5.4 °F 4.0 °F 1023.9 in NW 8.0 mph 17.7 mph 91 % 0.0 in 28 W/m2
09:40 5.5 °F 4.1 °F 1023.9 in NW 6.4 mph 17.7 mph 91 % 0.0 in 28 W/m2
09:45 5.5 °F 4.1 °F 1023.9 in NNW 16.1 mph 16.1 mph 91 % 0.0 in 30 W/m2
09:50 5.6 °F 4.0 °F 1023.9 in WNW 8.0 mph 16.1 mph 90 % 0.0 in 32 W/m2
10:00 5.8 °F 4.3 °F 1023.9 in NNW 8.0 mph 19.3 mph 90 % 0.0 in 35 W/m2
10:05 5.9 °F 4.2 °F 1023.9 in NW 9.7 mph 20.9 mph 89 % 0.0 in 37 W/m2
10:10 6.0 °F 4.2 °F 1024.3 in WNW 12.9 mph 20.9 mph 88 % 0.0 in 40 W/m2
10:15 6.1 °F 4.3 °F 1024.3 in WNW 19.3 mph 20.9 mph 88 % 0.0 in 44 W/m2
10:20 6.3 °F 4.3 °F 1024.3 in North 8.0 mph 20.9 mph 87 % 0.0 in 142 W/m2
10:25 6.8 °F 4.4 °F 1024.6 in NNW 8.0 mph 24.1 mph 85 % 0.0 in 153 W/m2
10:30 7.0 °F 4.3 °F 1024.9 in NW 12.9 mph 24.1 mph 83 % 0.0 in 163 W/m2
10:35 7.2 °F 4.3 °F 1024.9 in WNW 3.2 mph 24.1 mph 82 % 0.0 in 176 W/m2
10:40 7.3 °F 4.4 °F 1024.9 in NNW 11.3 mph 24.1 mph 82 % 0.0 in 185 W/m2
10:45 7.4 °F 4.3 °F 1024.9 in WNW 14.5 mph 20.9 mph 81 % 0.0 in 197 W/m2
10:50 7.6 °F 4.3 °F 1024.9 in WNW 8.0 mph 25.7 mph 80 % 0.0 in 202 W/m2
10:55 7.7 °F 4.4 °F 1024.9 in WNW 3.2 mph 25.7 mph 80 % 0.0 in 214 W/m2
11:00 7.8 °F 4.5 °F 1024.9 in NW 9.7 mph 19.3 mph 80 % 0.0 in 225 W/m2
11:05 7.9 °F 4.5 °F 1024.9 in West 11.3 mph 22.5 mph 79 % 0.0 in 236 W/m2
11:10 7.9 °F 4.5 °F 1024.9 in WNW 16.1 mph 24.1 mph 79 % 0.0 in 239 W/m2
11:15 8.0 °F 4.2 °F 1024.9 in WNW 6.4 mph 25.7 mph 77 % 0.0 in 248 W/m2
11:20 8.0 °F 4.0 °F 1024.9 in NW 14.5 mph 27.4 mph 76 % 0.0 in 253 W/m2
11:25 8.1 °F 4.3 °F 1024.9 in NW 19.3 mph 27.4 mph 77 % 0.0 in 258 W/m2
11:30 8.2 °F 4.4 °F 1025.3 in NW 6.4 mph 24.1 mph 77 % 0.0 in 262 W/m2
11:35 8.3 °F 4.3 °F 1024.9 in WNW 12.9 mph 24.1 mph 76 % 0.0 in 267 W/m2
11:40 8.3 °F 4.5 °F 1025.3 in NNW 11.3 mph 24.1 mph 77 % 0.0 in 272 W/m2
11:45 8.4 °F 4.4 °F 1025.3 in WNW 8.0 mph 20.9 mph 76 % 0.0 in 281 W/m2
11:55 8.3 °F 3.8 °F 1025.3 in WNW 12.9 mph 29.0 mph 73 % 0.0 in 288 W/m2
12:00 8.4 °F 4.3 °F 1025.3 in North 11.3 mph 29.0 mph 75 % 0.0 in 258 W/m2
12:10 8.5 °F 3.9 °F 1025.3 in West 11.3 mph 29.0 mph 73 % 0.0 in 297 W/m2
12:15 8.4 °F 3.5 °F 1025.3 in NW 14.5 mph 29.0 mph 71 % 0.0 in 304 W/m2
12:20 8.7 °F 4.1 °F 1025.3 in NW 12.9 mph 24.1 mph 73 % 0.0 in 308 W/m2
12:25 8.7 °F 3.9 °F 1025.3 in North 14.5 mph 24.1 mph 72 % 0.0 in 311 W/m2
12:30 8.6 °F 3.8 °F 1024.9 in WNW 9.7 mph 24.1 mph 72 % 0.0 in 318 W/m2
12:35 8.7 °F 3.8 °F 1024.9 in NW 8.0 mph 22.5 mph 71 % 0.0 in 316 W/m2
12:40 8.8 °F 4.1 °F 1024.9 in WNW 11.3 mph 22.5 mph 72 % 0.0 in 318 W/m2
12:45 9.0 °F 4.0 °F 1024.9 in NW 9.7 mph 22.5 mph 71 % 0.0 in 323 W/m2
12:50 9.1 °F 3.7 °F 1024.9 in WNW 19.3 mph 29.0 mph 69 % 0.0 in 323 W/m2
12:55 9.2 °F 3.8 °F 1024.9 in NNE 25.7 mph 29.0 mph 69 % 0.0 in 323 W/m2
13:00 9.2 °F 3.8 °F 1024.9 in WNW 4.8 mph 27.4 mph 69 % 0.0 in 322 W/m2
13:05 8.9 °F 3.3 °F 1024.9 in NNW 11.3 mph 32.2 mph 68 % 0.0 in 323 W/m2
13:10 8.9 °F 3.6 °F 1024.9 in NW 12.9 mph 32.2 mph 69 % 0.0 in 322 W/m2
13:15 9.1 °F 3.2 °F 1024.9 in NW 11.3 mph 27.4 mph 67 % 0.0 in 320 W/m2
13:20 9.1 °F 3.2 °F 1024.6 in NW 6.4 mph 27.4 mph 67 % 0.0 in 320 W/m2
13:25 9.2 °F 3.6 °F 1024.6 in WNW 4.8 mph 24.1 mph 68 % 0.0 in 316 W/m2
13:30 9.3 °F 3.5 °F 1024.6 in NNW 9.7 mph 27.4 mph 67 % 0.0 in 315 W/m2
13:35 9.3 °F 3.5 °F 1024.6 in NW 12.9 mph 27.4 mph 67 % 0.0 in 311 W/m2
13:40 9.3 °F 3.7 °F 1024.6 in NW 12.9 mph 27.4 mph 68 % 0.0 in 309 W/m2
13:45 9.2 °F 3.6 °F 1024.6 in WNW 6.4 mph 25.7 mph 68 % 0.0 in 308 W/m2
13:50 9.2 °F 3.6 °F 1024.6 in NW 9.7 mph 25.7 mph 68 % 0.0 in 299 W/m2
13:55 9.3 °F 4.1 °F 1024.6 in NW 12.9 mph 24.1 mph 70 % 0.0 in 294 W/m2
14:00 9.4 °F 4.4 °F 1024.6 in NNW 17.7 mph 25.7 mph 71 % 0.0 in 295 W/m2
14:05 9.2 °F 3.2 °F 1024.3 in NNW 14.5 mph 25.7 mph 66 % 0.0 in 294 W/m2
14:10 9.1 °F 2.6 °F 1024.6 in NW 11.3 mph 30.6 mph 64 % 0.0 in 283 W/m2
14:15 9.1 °F 3.0 °F 1024.6 in NNW 4.8 mph 30.6 mph 66 % 0.0 in 279 W/m2
14:20 9.1 °F 2.4 °F 1024.6 in NW 14.5 mph 27.4 mph 63 % 0.0 in 274 W/m2
14:25 9.2 °F 2.7 °F 1024.6 in NNW 19.3 mph 27.4 mph 64 % 0.0 in 272 W/m2
14:30 9.1 °F 2.4 °F 1024.6 in West 14.5 mph 25.7 mph 63 % 0.0 in 262 W/m2
14:35 9.1 °F 2.4 °F 1024.3 in NW 9.7 mph 27.4 mph 63 % 0.0 in 262 W/m2
14:40 9.1 °F 2.4 °F 1024.3 in WNW 14.5 mph 30.6 mph 63 % 0.0 in 339 W/m2
14:45 9.8 °F 3.5 °F 1024.6 in NNW 9.7 mph 30.6 mph 65 % 0.0 in 357 W/m2
14:50 10.2 °F 3.2 °F 1024.6 in West 11.3 mph 25.7 mph 62 % 0.0 in 334 W/m2
14:55 10.2 °F 3.2 °F 1024.6 in North 16.1 mph 25.7 mph 62 % 0.0 in 338 W/m2
15:00 9.7 °F 3.6 °F 1024.6 in WNW 6.4 mph 25.7 mph 66 % 0.0 in 185 W/m2
15:05 9.7 °F 3.4 °F 1024.6 in NNW 16.1 mph 24.1 mph 65 % 0.0 in 311 W/m2
15:10 9.3 °F 2.9 °F 1024.6 in WNW 14.5 mph 27.4 mph 64 % 0.0 in 255 W/m2
15:15 9.1 °F 2.4 °F 1024.3 in NW 14.5 mph 27.4 mph 63 % 0.0 in 216 W/m2
15:20 8.5 °F 2.3 °F 1024.6 in WNW 8.0 mph 24.1 mph 65 % 0.0 in 183 W/m2
15:25 8.4 °F 2.2 °F 1024.3 in NW 14.5 mph 19.3 mph 65 % 0.0 in 169 W/m2
15:30 8.3 °F 2.6 °F 1024.6 in NW 22.5 mph 30.6 mph 67 % 0.0 in 155 W/m2
15:35 8.2 °F 2.2 °F 1024.6 in WNW 12.9 mph 30.6 mph 66 % 0.0 in 91 W/m2
15:40 8.1 °F 2.1 °F 1024.6 in WNW 12.9 mph 22.5 mph 66 % 0.0 in 74 W/m2
15:45 7.9 °F 2.2 °F 1024.6 in NNW 11.3 mph 29.0 mph 67 % 0.0 in 51 W/m2
15:50 7.8 °F 2.1 °F 1024.6 in West 11.3 mph 29.0 mph 67 % 0.0 in 51 W/m2
15:55 7.8 °F 1.9 °F 1024.6 in NW 11.3 mph 25.7 mph 66 % 0.0 in 62 W/m2
16:00 7.8 °F 1.8 °F 1024.6 in North 14.5 mph 30.6 mph 66 % 0.0 in 74 W/m2
16:05 7.7 °F 1.8 °F 1024.6 in WNW 14.5 mph 30.6 mph 66 % 0.0 in 42 W/m2
16:10 7.6 °F 2.0 °F 1024.6 in NW 17.7 mph 25.7 mph 68 % 0.0 in 37 W/m2
16:15 7.4 °F 2.1 °F 1024.6 in NW 6.4 mph 25.7 mph 69 % 0.0 in 44 W/m2
16:20 7.3 °F 2.2 °F 1024.6 in NW 11.3 mph 20.9 mph 70 % 0.0 in 30 W/m2
16:25 7.1 °F 2.2 °F 1024.6 in NNW 9.7 mph 22.5 mph 71 % 0.0 in 28 W/m2
16:35 6.9 °F 2.0 °F 1024.6 in North 1.6 mph 20.9 mph 71 % 0.0 in 19 W/m2
16:40 6.8 °F 2.1 °F 1024.6 in North 1.6 mph 20.9 mph 72 % 0.0 in 18 W/m2
16:45 6.6 °F 2.1 °F 1024.6 in NW 11.3 mph 20.9 mph 73 % 0.0 in 14 W/m2
16:50 6.7 °F 2.2 °F 1024.6 in NNW 8.0 mph 19.3 mph 73 % 0.0 in 12 W/m2
16:55 6.6 °F 2.1 °F 1024.6 in WNW 9.7 mph 17.7 mph 73 % 0.0 in 9 W/m2
17:05 6.7 °F 2.0 °F 1024.6 in West 8.0 mph 19.3 mph 72 % 0.0 in 7 W/m2
17:20 6.5 °F 1.8 °F 1024.6 in NNW 6.4 mph 14.5 mph 72 % 0.0 in 0 W/m2
17:25 6.3 °F 1.7 °F 1024.9 in WNW 4.8 mph 16.1 mph 72 % 0.0 in 0 W/m2
17:30 6.3 °F 1.8 °F 1024.9 in WNW 9.7 mph 17.7 mph 73 % 0.0 in 0 W/m2
17:35 6.3 °F 2.0 °F 1024.9 in NW 8.0 mph 17.7 mph 74 % 0.0 in 0 W/m2
17:40 6.2 °F 1.9 °F 1024.9 in NW 8.0 mph 16.1 mph 74 % 0.0 in 0 W/m2
17:50 6.3 °F 2.2 °F 1024.9 in WNW 4.8 mph 14.5 mph 75 % 0.0 in 0 W/m2
17:55 6.3 °F 2.2 °F 1024.9 in NW 9.7 mph 14.5 mph 75 % 0.0 in 0 W/m2
18:00 6.5 °F 2.4 °F 1024.9 in NW 8.0 mph 14.5 mph 75 % 0.0 in 0 W/m2
18:05 6.4 °F 2.3 °F 1024.9 in WNW 8.0 mph 20.9 mph 75 % 0.0 in 0 W/m2
18:10 6.3 °F 2.2 °F 1024.9 in NW 11.3 mph 20.9 mph 75 % 0.0 in 0 W/m2
18:15 6.2 °F 2.5 °F 1024.9 in WNW 6.4 mph 17.7 mph 77 % 0.0 in 0 W/m2
18:20 6.1 °F 2.3 °F 1024.9 in NW 6.4 mph 20.9 mph 77 % 0.0 in 0 W/m2
18:25 6.0 °F 2.1 °F 1024.9 in WNW 6.4 mph 20.9 mph 76 % 0.0 in 0 W/m2
18:30 5.8 °F 2.1 °F 1025.3 in NW 9.7 mph 17.7 mph 77 % 0.0 in 0 W/m2
18:35 5.8 °F 2.1 °F 1025.3 in NW 6.4 mph 20.9 mph 77 % 0.0 in 0 W/m2
18:40 5.6 °F 2.1 °F 1025.3 in NNW 8.0 mph 20.9 mph 78 % 0.0 in 0 W/m2
18:45 5.7 °F 2.2 °F 1025.3 in NW 3.2 mph 17.7 mph 78 % 0.0 in 0 W/m2
18:55 5.8 °F 2.1 °F 1025.3 in WNW 14.5 mph 19.3 mph 77 % 0.0 in 0 W/m2
19:00 5.7 °F 2.0 °F 1025.3 in NNW 9.7 mph 17.7 mph 77 % 0.0 in 0 W/m2
19:05 5.7 °F 1.8 °F 1025.6 in WNW 19.3 mph 22.5 mph 76 % 0.0 in 0 W/m2
19:10 5.5 °F 1.6 °F 1025.3 in WNW 4.8 mph 22.5 mph 76 % 0.0 in 0 W/m2
19:15 5.4 °F 1.7 °F 1025.3 in NW 11.3 mph 19.3 mph 77 % 0.0 in 0 W/m2
19:20 5.4 °F 1.7 °F 1025.6 in WNW 8.0 mph 19.3 mph 77 % 0.0 in 0 W/m2
19:25 5.4 °F 1.7 °F 1025.3 in NW 9.7 mph 16.1 mph 77 % 0.0 in 0 W/m2
19:30 5.5 °F 2.0 °F 1025.6 in NW 6.4 mph 19.3 mph 78 % 0.0 in 0 W/m2
19:35 5.5 °F 2.0 °F 1025.6 in WNW 11.3 mph 19.3 mph 78 % 0.0 in 0 W/m2
19:40 5.5 °F 2.0 °F 1025.6 in WNW 6.4 mph 19.3 mph 78 % 0.0 in 0 W/m2
19:45 5.6 °F 2.0 °F 1025.6 in NW 3.2 mph 19.3 mph 78 % 0.0 in 0 W/m2
19:50 5.4 °F 1.9 °F 1025.6 in WNW 11.3 mph 16.1 mph 78 % 0.0 in 0 W/m2
19:55 5.4 °F 1.9 °F 1025.6 in North 6.4 mph 17.7 mph 78 % 0.0 in 0 W/m2
20:00 5.3 °F 1.8 °F 1026.0 in NW 6.4 mph 17.7 mph 78 % 0.0 in 0 W/m2
20:05 5.3 °F 1.9 °F 1026.0 in NW 11.3 mph 17.7 mph 79 % 0.0 in 0 W/m2
20:10 5.1 °F 1.8 °F 1026.0 in NW 6.4 mph 17.7 mph 79 % 0.0 in 0 W/m2
20:20 5.0 °F 1.8 °F 1026.0 in NW 4.8 mph 16.1 mph 80 % 0.0 in 0 W/m2
20:25 5.0 °F 2.0 °F 1026.0 in WNW 6.4 mph 17.7 mph 81 % 0.0 in 0 W/m2
20:30 5.2 °F 2.0 °F 1026.0 in NW 8.0 mph 17.7 mph 80 % 0.0 in 0 W/m2
20:35 5.1 °F 1.9 °F 1026.0 in NW 6.4 mph 14.5 mph 80 % 0.0 in 0 W/m2
20:40 4.6 °F 1.6 °F 1026.0 in NW 9.7 mph 11.3 mph 81 % 0.0 in 0 W/m2
20:45 4.3 °F 1.6 °F 1026.0 in WNW 3.2 mph 16.1 mph 83 % 0.0 in 0 W/m2
20:50 4.2 °F 1.6 °F 1025.6 in NW 4.8 mph 16.1 mph 83 % 0.0 in 0 W/m2
20:55 4.1 °F 1.6 °F 1025.6 in WNW 1.6 mph 12.9 mph 84 % 0.0 in 0 W/m2
21:00 4.2 °F 1.7 °F 1026.0 in WNW 4.8 mph 17.7 mph 84 % 0.0 in 0 W/m2
21:05 4.3 °F 1.9 °F 1026.0 in Calm   17.7 mph 84 % 0.0 in 0 W/m2
21:10 4.2 °F 1.8 °F 1026.0 in NW 4.8 mph 16.1 mph 84 % 0.0 in 0 W/m2
21:15 4.2 °F 1.8 °F 1026.0 in West 6.4 mph 16.1 mph 84 % 0.0 in 0 W/m2
21:20 4.1 °F 1.6 °F 1026.0 in NNW 8.0 mph 16.1 mph 84 % 0.0 in 0 W/m2
21:25 4.1 °F 1.6 °F 1026.0 in NW 8.0 mph 11.3 mph 84 % 0.0 in 0 W/m2
21:30 3.9 °F 1.5 °F 1026.0 in West 6.4 mph 14.5 mph 84 % 0.0 in 0 W/m2
21:35 4.1 °F 1.8 °F 1026.0 in NW 4.8 mph 14.5 mph 85 % 0.0 in 0 W/m2
21:40 4.1 °F 1.8 °F 1026.0 in NNW 8.0 mph 12.9 mph 85 % 0.0 in 0 W/m2
21:45 4.2 °F 1.7 °F 1026.0 in NW 6.4 mph 16.1 mph 84 % 0.0 in 0 W/m2
21:50 4.1 °F 1.6 °F 1026.0 in North 9.7 mph 16.1 mph 84 % 0.0 in 0 W/m2
21:55 3.8 °F 1.5 °F 1026.0 in NW 1.6 mph 12.9 mph 85 % 0.0 in 0 W/m2
22:00 3.7 °F 1.4 °F 1026.0 in NW 3.2 mph 9.7 mph 85 % 0.0 in 0 W/m2
22:05 3.3 °F 1.2 °F 1026.0 in Calm   8.0 mph 86 % 0.0 in 0 W/m2
22:10 3.1 °F 1.1 °F 1026.0 in NNW 1.6 mph 8.0 mph 87 % 0.0 in 0 W/m2
22:15 2.8 °F 1.0 °F 1026.0 in NW 1.6 mph 4.8 mph 88 % 0.0 in 0 W/m2
22:20 2.6 °F 0.8 °F 1026.3 in Calm   4.8 mph 88 % 0.0 in 0 W/m2
22:25 2.7 °F 1.0 °F 1026.0 in Calm   6.4 mph 89 % 0.0 in 0 W/m2
22:35 2.3 °F 0.7 °F 1026.0 in NW 3.2 mph 8.0 mph 89 % 0.0 in 0 W/m2
22:40 2.2 °F 0.5 °F 1026.3 in WNW 1.6 mph 8.0 mph 89 % 0.0 in 0 W/m2
22:45 2.2 °F 0.7 °F 1026.3 in NW 4.8 mph 8.0 mph 90 % 0.0 in 0 W/m2
22:50 2.3 °F 1.0 °F 1026.3 in WNW 1.6 mph 8.0 mph 91 % 0.0 in 0 W/m2
22:55 2.3 °F 1.0 °F 1026.3 in Calm   8.0 mph 91 % 0.0 in 0 W/m2
23:00 2.4 °F 1.1 °F 1026.0 in WNW 4.8 mph 12.9 mph 91 % 0.0 in 0 W/m2
23:05 2.7 °F 1.2 °F 1026.0 in NW 6.4 mph 12.9 mph 90 % 0.0 in 0 W/m2
23:10 2.9 °F 1.5 °F 1026.0 in NW 8.0 mph 19.3 mph 90 % 0.0 in 0 W/m2
23:15 3.3 °F 1.6 °F 1026.0 in NNW 6.4 mph 19.3 mph 89 % 0.0 in 0 W/m2
23:20 3.3 °F 1.5 °F 1026.0 in NNW 4.8 mph 16.1 mph 88 % 0.0 in 0 W/m2
23:25 3.2 °F 1.3 °F 1026.0 in NW 3.2 mph 16.1 mph 87 % 0.0 in 0 W/m2
23:30 3.2 °F 1.2 °F 1026.0 in WNW 6.4 mph 11.3 mph 87 % 0.0 in 0 W/m2
23:35 3.0 °F 1.0 °F 1026.0 in North 4.8 mph 12.9 mph 87 % 0.0 in 0 W/m2
23:40 2.9 °F 1.0 °F 1026.0 in NNW 4.8 mph 12.9 mph 87 % 0.0 in 0 W/m2
23:45 2.8 °F 0.8 °F 1026.0 in NW 4.8 mph 9.7 mph 87 % 0.0 in 0 W/m2
23:50 2.8 °F 1.0 °F 1026.0 in NNW 6.4 mph 12.9 mph 88 % 0.0 in 0 W/m2
23:55 2.7 °F 0.9 °F 1026.0 in NW 4.8 mph 12.9 mph 88 % 0.0 in 0 W/m2
Avec l'autorisation de Weather Underground - 1.75 mb